Time;durP1;ratioP1;P1;durP2;ratioP2;P2;SDS_P1;SDS_P2;PMS_P1;PMS_P2;Temp;Humidity;BMP_temperature;BMP_pressure;BME280_temperature;BME280_humidity;BME280_pressure;Samples;Min_cycle;Max_cycle;Signal;HPM_P1;HPM_P2
2021/01/19 19:27:26;;;;;;;1.80;1.52;;;21.60;46.60;;;;;;5109203;27;893355;-40
2021/01/19 19:29:53;;;;;;;5.07;1.27;;;19.80;45.20;;;;;;5112724;28;20051;-40
2021/01/19 19:32:22;;;;;;;4.63;1.33;;;19.50;45.80;;;;;;5103351;28;20056;-41
2021/01/19 19:34:49;;;;;;;3.22;1.13;;;19.30;46.50;;;;;;5105564;28;20048;-42
2021/01/19 19:37:18;;;;;;;7.00;1.58;;;19.10;46.90;;;;;;5100263;28;20135;-39
2021/01/19 19:39:50;;;;;;;4.88;1.10;;;18.90;47.30;;;;;;5101656;28;20106;-40
2021/01/19 19:42:16;;;;;;;5.63;1.00;;;18.80;47.70;;;;;;5104451;28;20055;-41
2021/01/19 19:44:45;;;;;;;3.88;1.40;;;18.70;47.90;;;;;;5104413;27;20047;-41
2021/01/19 19:47:12;;;;;;;6.60;1.35;;;18.70;48.20;;;;;;5113069;28;20093;-39
2021/01/19 19:49:38;;;;;;;1.63;1.00;;;18.60;48.40;;;;;;5117414;27;20044;-41
2021/01/19 19:52:06;;;;;;;5.35;1.30;;;18.50;48.50;;;;;;5116957;27;20551;-41
2021/01/19 19:54:32;;;;;;;4.15;0.93;;;18.50;48.70;;;;;;5116710;28;20044;-37
2021/01/19 19:56:59;;;;;;;1.92;1.02;;;18.50;49.10;;;;;;5115142;28;20055;-39
2021/01/19 19:59:26;;;;;;;8.05;1.33;;;18.50;48.90;;;;;;5116546;28;20052;-39
2021/01/19 20:01:54;;;;;;;4.60;1.58;;;18.40;48.80;;;;;;5116327;28;20054;-40
2021/01/19 20:04:22;;;;;;;4.22;1.40;;;18.40;48.80;;;;;;5113963;28;20502;-39
2021/01/19 20:06:49;;;;;;;4.32;1.10;;;18.40;48.90;;;;;;5113238;28;20051;-40
2021/01/19 20:09:17;;;;;;;13.98;1.13;;;18.40;49.10;;;;;;5111764;27;20050;-40
2021/01/19 20:11:43;;;;;;;2.45;1.38;;;18.30;49.10;;;;;;5116126;28;20039;-44
2021/01/19 20:14:10;;;;;;;6.60;1.40;;;18.30;49.20;;;;;;5115930;28;20035;-42
2021/01/19 20:16:38;;;;;;;3.83;1.30;;;18.30;49.20;;;;;;5116558;28;20126;-40
2021/01/19 20:19:06;;;;;;;8.73;2.55;;;18.30;49.20;;;;;;5115054;28;20052;-40
2021/01/19 20:21:38;;;;;;;4.00;1.25;;;18.30;49.20;;;;;;5104872;28;20055;-39
2021/01/19 20:24:08;;;;;;;3.65;1.48;;;18.30;49.20;;;;;;5111909;28;20123;-40
2021/01/19 20:26:44;;;;;;;7.13;1.10;;;18.30;49.20;;;;;;5080406;27;20071;-40
2021/01/19 20:29:11;;;;;;;9.63;1.40;;;18.30;49.20;;;;;;5114908;28;20075;-39
2021/01/19 20:31:38;;;;;;;6.20;1.10;;;18.30;49.30;;;;;;5111692;28;20075;-39
2021/01/19 20:34:06;;;;;;;8.80;1.30;;;18.30;49.30;;;;;;5112758;27;20071;-45
2021/01/19 20:36:33;;;;;;;15.82;1.55;;;18.30;49.40;;;;;;5109805;28;20048;-40
2021/01/19 20:39:00;;;;;;;14.20;1.60;;;18.30;49.70;;;;;;5085085;28;20042;-39
2021/01/19 20:41:26;;;;;;;22.00;2.55;;;18.30;49.60;;;;;;5085419;28;20052;-38
2021/01/19 20:43:53;;;;;;;29.38;2.00;;;18.30;49.60;;;;;;5077533;28;20052;-37
2021/01/19 20:46:22;;;;;;;20.63;1.65;;;18.30;49.50;;;;;;5085327;28;20067;-39
2021/01/19 20:48:49;;;;;;;16.58;2.15;;;18.30;49.50;;;;;;5085057;28;20045;-39
2021/01/19 20:51:16;;;;;;;25.10;2.58;;;18.30;49.40;;;;;;5085248;28;20131;-39
2021/01/19 20:53:42;;;;;;;24.05;2.45;;;18.30;49.30;;;;;;5079769;28;20491;-39
2021/01/19 20:56:09;;;;;;;14.05;2.08;;;18.30;49.30;;;;;;5087946;28;20051;-42
2021/01/19 20:58:36;;;;;;;15.23;3.05;;;18.30;49.20;;;;;;5084707;28;20048;-39
2021/01/19 21:01:03;;;;;;;17.10;1.85;;;18.30;49.10;;;;;;5086237;28;20448;-39
2021/01/19 21:03:29;;;;;;;14.52;2.17;;;18.30;49.00;;;;;;5086555;28;20090;-39
2021/01/19 21:05:58;;;;;;;16.05;1.95;;;18.30;49.00;;;;;;5078322;28;20037;-39
2021/01/19 21:08:26;;;;;;;20.85;1.85;;;18.30;48.90;;;;;;5078159;28;20079;-40
2021/01/19 21:10:53;;;;;;;15.55;2.33;;;18.30;48.80;;;;;;5080388;28;20102;-39
2021/01/19 21:13:21;;;;;;;8.70;1.63;;;18.30;48.80;;;;;;5080871;28;20132;-41
2021/01/19 21:15:49;;;;;;;15.15;2.13;;;18.30;48.70;;;;;;5082243;28;20044;-39
2021/01/19 21:18:16;;;;;;;18.05;2.30;;;18.30;48.70;;;;;;5083619;28;20055;-39
2021/01/19 21:20:43;;;;;;;13.27;2.28;;;18.30;48.60;;;;;;5084369;28;20130;-40
2021/01/19 21:23:10;;;;;;;13.93;1.70;;;18.30;48.60;;;;;;5089570;28;20097;-40
2021/01/19 21:25:37;;;;;;;17.98;2.17;;;18.30;48.50;;;;;;5080968;28;20067;-39
2021/01/19 21:28:06;;;;;;;11.32;2.05;;;18.30;48.50;;;;;;5078333;28;20086;-39
2021/01/19 21:30:33;;;;;;;15.23;2.25;;;18.30;48.50;;;;;;5087683;28;20069;-39
2021/01/19 21:33:00;;;;;;;7.63;2.22;;;18.30;48.40;;;;;;5084835;28;20036;-39
2021/01/19 21:35:27;;;;;;;13.25;2.30;;;18.30;48.40;;;;;;5088093;28;20048;-39
2021/01/19 21:37:54;;;;;;;11.95;1.70;;;18.30;48.40;;;;;;5080814;28;20048;-45
2021/01/19 21:40:21;;;;;;;14.27;2.15;;;18.30;48.40;;;;;;5084067;28;20059;-45
2021/01/19 21:42:48;;;;;;;12.63;1.90;;;18.30;48.30;;;;;;5083870;28;20048;-47
2021/01/19 21:45:15;;;;;;;6.70;1.33;;;18.30;48.30;;;;;;5083565;28;20106;-44
2021/01/19 21:47:46;;;;;;;8.38;1.55;;;18.20;48.20;;;;;;5080013;28;20120;-42
2021/01/19 21:50:13;;;;;;;9.85;1.77;;;18.30;48.20;;;;;;5084909;28;20040;-46
2021/01/19 21:52:41;;;;;;;7.97;1.80;;;18.30;48.20;;;;;;5081201;28;20072;-42
2021/01/19 21:55:08;;;;;;;8.73;1.70;;;18.30;48.20;;;;;;5078073;28;20036;-41
2021/01/19 21:57:34;;;;;;;9.15;1.85;;;18.30;48.10;;;;;;5082204;28;20503;-42
2021/01/19 22:00:01;;;;;;;13.90;1.77;;;18.20;48.10;;;;;;5083282;28;20072;-40
2021/01/19 22:02:28;;;;;;;14.00;1.60;;;18.30;48.10;;;;;;5083688;28;20135;-43
2021/01/19 22:04:56;;;;;;;8.77;1.50;;;18.30;48.10;;;;;;5080111;28;20504;-45
2021/01/19 22:07:38;;;;;;;6.57;1.73;;;18.20;48.00;;;;;;5085588;28;20051;-41
2021/01/19 22:10:19;;;;;;;11.43;2.22;;;18.20;48.00;;;;;;5084875;28;20051;-45
2021/01/19 22:12:46;;;;;;;6.32;1.45;;;18.20;47.90;;;;;;5086514;28;20434;-44
2021/01/19 22:15:13;;;;;;;10.02;1.65;;;18.20;47.90;;;;;;5080424;28;20051;-45
2021/01/19 22:17:39;;;;;;;4.82;1.85;;;18.30;48.00;;;;;;5083575;28;20476;-44
2021/01/19 22:20:07;;;;;;;11.93;1.70;;;18.20;47.90;;;;;;5086974;28;20044;-40
2021/01/19 22:22:34;;;;;;;5.90;1.58;;;18.20;47.90;;;;;;5090596;28;20052;-40
2021/01/19 22:25:01;;;;;;;5.97;1.77;;;18.20;47.90;;;;;;5080441;28;20457;-43
2021/01/19 22:27:27;;;;;;;6.28;1.50;;;18.20;47.80;;;;;;5084165;28;20451;-44
2021/01/19 22:29:54;;;;;;;5.20;1.42;;;18.30;47.90;;;;;;5078767;28;20040;-39
2021/01/19 22:32:20;;;;;;;6.63;1.27;;;18.20;47.80;;;;;;5082841;28;20124;-41
2021/01/19 22:34:47;;;;;;;7.85;2.13;;;18.20;47.80;;;;;;5082684;28;20109;-42
2021/01/19 22:37:14;;;;;;;6.78;1.75;;;18.20;47.70;;;;;;5081814;28;20098;-41
2021/01/19 22:39:41;;;;;;;6.68;1.60;;;18.20;47.70;;;;;;5086173;28;20052;-43
2021/01/19 22:42:08;;;;;;;7.22;1.73;;;18.20;47.70;;;;;;5082348;28;20484;-39
2021/01/19 22:44:35;;;;;;;9.43;1.75;;;18.20;47.70;;;;;;5085606;28;20052;-46
2021/01/19 22:47:02;;;;;;;8.40;1.48;;;18.30;47.70;;;;;;5087120;28;20093;-40
2021/01/19 22:49:29;;;;;;;9.15;1.75;;;18.20;47.70;;;;;;5083347;28;20109;-39
2021/01/19 22:51:55;;;;;;;2.83;1.20;;;18.20;47.70;;;;;;5080757;28;20063;-40
2021/01/19 22:54:22;;;;;;;4.43;1.27;;;18.20;47.60;;;;;;5075832;28;20510;-39
2021/01/19 22:56:48;;;;;;;4.35;1.63;;;18.20;47.60;;;;;;5084949;28;20044;-41
2021/01/19 22:59:15;;;;;;;8.95;2.08;;;18.20;47.60;;;;;;5083136;28;20076;-39
2021/01/19 23:01:42;;;;;;;11.93;1.48;;;18.20;47.60;;;;;;5086099;28;20105;-39
2021/01/19 23:04:08;;;;;;;7.57;1.65;;;18.20;47.60;;;;;;5085823;28;20470;-39
2021/01/19 23:06:35;;;;;;;3.45;1.30;;;18.20;47.60;;;;;;5084558;28;20045;-40
2021/01/19 23:09:03;;;;;;;9.45;1.80;;;18.30;48.20;;;;;;5086955;28;20403;-39
2021/01/19 23:11:29;;;;;;;7.70;1.70;;;18.20;47.50;;;;;;5080436;28;20036;-40
2021/01/19 23:13:56;;;;;;;4.13;1.40;;;18.20;47.50;;;;;;5087937;28;20503;-41
2021/01/19 23:16:23;;;;;;;7.97;1.58;;;18.20;47.50;;;;;;5083115;28;20117;-41
2021/01/19 23:18:50;;;;;;;4.55;1.33;;;18.20;47.50;;;;;;5084409;28;20059;-40
2021/01/19 23:21:19;;;;;;;6.88;1.50;;;18.20;47.50;;;;;;5080744;28;20048;-40
2021/01/19 23:23:47;;;;;;;4.60;1.50;;;18.20;47.40;;;;;;5087059;28;20164;-39
2021/01/19 23:26:14;;;;;;;6.28;1.52;;;18.20;47.50;;;;;;5077237;28;20071;-40
2021/01/19 23:28:41;;;;;;;6.90;1.70;;;18.20;47.40;;;;;;5081379;28;20040;-40
2021/01/19 23:31:08;;;;;;;3.78;1.40;;;18.20;47.40;;;;;;5084566;28;20047;-39
2021/01/19 23:33:35;;;;;;;4.38;1.42;;;18.20;47.40;;;;;;5082870;28;20052;-39
2021/01/19 23:36:02;;;;;;;3.53;1.40;;;18.20;47.40;;;;;;5081595;28;20052;-40
2021/01/19 23:38:29;;;;;;;4.90;1.40;;;18.20;47.40;;;;;;5076149;28;20052;-41
2021/01/19 23:40:55;;;;;;;7.93;1.55;;;18.20;47.40;;;;;;5078085;28;20052;-41
2021/01/19 23:43:22;;;;;;;3.63;1.50;;;18.20;47.40;;;;;;5078482;28;20048;-41
2021/01/19 23:45:48;;;;;;;2.97;1.20;;;18.30;47.50;;;;;;5079022;28;20044;-41
2021/01/19 23:48:15;;;;;;;5.95;1.25;;;18.20;47.30;;;;;;5078230;28;20102;-42
2021/01/19 23:50:43;;;;;;;7.32;1.50;;;18.20;47.30;;;;;;5082499;28;20069;-40
2021/01/19 23:53:10;;;;;;;2.78;1.50;;;18.20;47.30;;;;;;5088135;28;20059;-40
2021/01/19 23:55:37;;;;;;;2.55;1.25;;;18.20;47.30;;;;;;5086871;28;20048;-41
2021/01/19 23:58:04;;;;;;;2.53;1.10;;;18.20;47.30;;;;;;5086060;28;20048;-42
